Time;durP1;ratioP1;P1;durP2;ratioP2;P2;SDS_P1;SDS_P2;PMS_P1;PMS_P2;Temp;Humidity;BMP_temperature;BMP_pressure;BME280_temperature;BME280_humidity;BME280_pressure;Samples;Min_cycle;Max_cycle;Signal;HPM_P1;HPM_P2
2022/06/24 00:01:26;;;;;;;6.32;2.40;;;;;;;15.90;92.62;93551.25;5034686;28;20076;-56
2022/06/24 00:03:53;;;;;;;15.70;2.55;;;;;;;15.93;93.75;93556.63;5051124;28;20110;-54
2022/06/24 00:06:20;;;;;;;6.00;2.43;;;;;;;16.03;93.42;93560.19;5050711;28;20045;-54
2022/06/24 00:08:59;;;;;;;6.35;2.85;;;;;;;15.94;93.27;93558.19;5050850;28;20072;-57
2022/06/24 00:11:28;;;;;;;7.25;3.60;;;;;;;15.85;94.12;93563.69;5050578;28;20109;-54
2022/06/24 00:14:14;;;;;;;8.80;3.00;;;;;;;15.87;94.08;93550.16;5050872;28;20047;-54
2022/06/24 00:17:00;;;;;;;6.93;2.60;;;;;;;15.73;94.13;93553.50;5050159;28;20379;-55
2022/06/24 00:19:30;;;;;;;6.17;2.50;;;;;;;15.83;93.67;93543.25;5020751;28;20045;-56
2022/06/24 00:22:03;;;;;;;8.32;2.42;;;;;;;15.96;93.19;93544.66;5030832;28;20047;-56
2022/06/24 00:24:32;;;;;;;7.03;2.47;;;;;;;16.07;92.77;93543.41;5027685;28;20426;-55
2022/06/24 00:26:59;;;;;;;5.85;2.55;;;;;;;16.04;93.27;93547.88;5038381;28;20049;-57
2022/06/24 00:29:30;;;;;;;30.88;16.67;;;;;;;16.10;93.22;93548.81;5036913;28;20049;-56
2022/06/24 00:31:59;;;;;;;8.50;3.00;;;;;;;16.11;92.18;93539.25;5050381;28;20052;-56
2022/06/24 00:34:26;;;;;;;6.68;2.70;;;;;;;16.24;91.84;93539.13;5040233;28;20067;-56
2022/06/24 00:36:53;;;;;;;6.25;2.15;;;;;;;16.34;91.61;93534.38;5038500;28;20051;-56
2022/06/24 00:39:20;;;;;;;6.05;2.47;;;;;;;16.40;90.78;93537.25;5032101;28;20433;-55
2022/06/24 00:41:51;;;;;;;4.65;2.22;;;;;;;16.43;90.20;93542.66;5036066;28;20425;-56
2022/06/24 00:44:21;;;;;;;5.83;2.20;;;;;;;16.44;89.54;93537.88;5030237;28;20426;-56
2022/06/24 00:46:52;;;;;;;5.97;2.53;;;;;;;16.43;89.30;93537.13;5050120;28;20049;-56
2022/06/24 00:49:25;;;;;;;6.65;2.58;;;;;;;16.40;89.18;93538.06;5049702;28;20105;-55
2022/06/24 00:51:52;;;;;;;5.75;2.30;;;;;;;16.32;89.48;93534.06;5049963;28;20049;-56
2022/06/24 00:54:23;;;;;;;7.75;2.33;;;;;;;16.29;89.66;93532.19;5037412;28;20111;-57
2022/06/24 00:56:56;;;;;;;6.40;2.50;;;;;;;16.29;90.21;93529.44;5048828;28;20045;-54
2022/06/24 00:59:23;;;;;;;10.00;2.47;;;;;;;16.23;89.60;93534.81;5049558;28;20052;-53
2022/06/24 01:01:50;;;;;;;5.25;2.45;;;;;;;16.19;90.10;93539.75;5049647;28;20448;-55
2022/06/24 01:04:17;;;;;;;29.27;16.17;;;;;;;16.10;90.29;93543.28;5047664;28;20048;-57
2022/06/24 01:06:44;;;;;;;8.02;3.00;;;;;;;16.06;90.89;93537.13;5049883;28;20044;-56
2022/06/24 01:09:12;;;;;;;7.10;2.40;;;;;;;16.03;90.74;93537.28;5049772;28;20424;-57
2022/06/24 01:11:41;;;;;;;5.80;2.30;;;;;;;15.99;90.50;93542.94;5049581;28;20385;-56
2022/06/24 01:14:08;;;;;;;8.02;2.40;;;;;;;15.96;91.03;93538.34;5049572;28;20063;-56
2022/06/24 01:16:35;;;;;;;7.13;2.35;;;;;;;15.89;91.00;93533.09;5049415;28;20076;-58
2022/06/24 01:19:06;;;;;;;9.10;2.45;;;;;;;15.80;91.90;93528.34;5049872;28;20063;-53
2022/06/24 01:21:44;;;;;;;5.93;2.30;;;;;;;15.70;92.10;93527.50;5049062;28;20056;-56
2022/06/24 01:24:17;;;;;;;7.82;2.60;;;;;;;15.74;92.17;93530.94;5048546;28;20055;-56
2022/06/24 01:26:48;;;;;;;7.75;2.35;;;;;;;15.67;92.18;93527.66;5028669;28;22056;-57
2022/06/24 01:29:18;;;;;;;7.80;2.15;;;;;;;15.68;91.87;93527.19;5015335;28;20061;-57
2022/06/24 01:31:49;;;;;;;6.50;2.22;;;;;;;15.63;92.46;93521.50;5029610;28;20057;-53
2022/06/24 01:34:17;;;;;;;6.43;2.07;;;;;;;15.59;92.15;93518.88;5028745;28;20154;-55
2022/06/24 01:36:45;;;;;;;7.85;2.20;;;;;;;15.58;92.24;93520.88;5029694;28;20054;-57
2022/06/24 01:39:11;;;;;;;6.85;2.13;;;;;;;15.55;92.16;93515.50;5029464;28;20075;-57
2022/06/24 01:41:38;;;;;;;5.28;2.00;;;;;;;15.48;92.31;93527.63;5015957;28;20119;-56
2022/06/24 01:44:05;;;;;;;8.90;2.40;;;;;;;15.37;92.83;93525.28;5019344;28;20045;-55
2022/06/24 01:46:32;;;;;;;9.50;3.00;;;;;;;15.31;92.88;93518.81;5019394;28;20033;-54
2022/06/24 01:48:59;;;;;;;7.85;3.33;;;;;;;15.27;92.86;93525.69;5015370;28;20155;-56
2022/06/24 01:51:27;;;;;;;9.13;2.30;;;;;;;15.22;92.61;93524.31;5026612;28;20076;-56
2022/06/24 01:53:54;;;;;;;8.05;2.20;;;;;;;15.27;92.55;93525.69;5028257;28;20038;-57
2022/06/24 01:56:21;;;;;;;8.07;2.30;;;;;;;15.25;92.41;93525.38;5027153;28;20052;-56
2022/06/24 01:58:48;;;;;;;9.57;2.40;;;;;;;15.24;92.16;93521.09;5023982;28;20111;-54
2022/06/24 02:01:15;;;;;;;6.43;2.20;;;;;;;15.21;92.44;93519.22;5027728;28;20041;-55
2022/06/24 02:03:42;;;;;;;5.85;2.05;;;;;;;15.25;92.44;93519.84;5029115;28;20050;-56
2022/06/24 02:06:11;;;;;;;6.40;2.10;;;;;;;15.25;92.32;93514.31;5029152;28;20042;-56
2022/06/24 02:08:39;;;;;;;7.93;2.08;;;;;;;15.30;92.53;93506.22;5028887;28;20046;-57
2022/06/24 02:13:58;;;;;;;3.88;1.73;;;;;;;15.25;91.88;93503.28;5028406;28;20133;-57
2022/06/24 02:16:26;;;;;;;7.47;2.10;;;;;;;15.25;92.00;93495.78;5020597;28;20052;-56
2022/06/24 02:18:54;;;;;;;6.45;2.20;;;;;;;15.25;91.64;93500.50;5013272;28;20046;-55
2022/06/24 02:21:22;;;;;;;4.63;2.10;;;;;;;15.25;91.57;93490.25;5036700;28;20067;-55
2022/06/24 02:23:50;;;;;;;7.87;2.07;;;;;;;15.24;91.79;93496.97;5033081;28;20045;-56
2022/06/24 02:26:17;;;;;;;6.90;2.00;;;;;;;15.23;91.36;93492.69;5032127;28;20115;-57
2022/06/24 02:28:44;;;;;;;7.25;1.95;;;;;;;15.20;91.72;93490.06;5032632;28;20041;-58
2022/06/24 02:31:11;;;;;;;4.47;1.85;;;;;;;15.11;91.41;93494.34;5032698;28;20049;-56
2022/06/24 02:33:38;;;;;;;7.97;2.35;;;;;;;14.91;92.29;93502.22;5020304;28;20493;-57
2022/06/24 02:36:06;;;;;;;5.07;1.80;;;;;;;14.72;93.06;93493.84;5030021;28;20075;-56
2022/06/24 02:38:34;;;;;;;6.65;2.13;;;;;;;14.69;93.75;93491.22;5032367;28;20040;-56
2022/06/24 02:41:01;;;;;;;3.88;2.00;;;;;;;14.71;93.85;93486.03;5022357;28;20041;-56
2022/06/24 02:43:31;;;;;;;5.25;2.00;;;;;;;14.71;93.67;93477.75;5016495;28;20049;-56
2022/06/24 02:46:06;;;;;;;7.10;2.20;;;;;;;14.73;93.31;93470.53;5022090;28;20448;-55
2022/06/24 02:48:35;;;;;;;5.43;2.00;;;;;;;14.75;93.36;93481.91;5024005;28;20189;-58
2022/06/24 02:51:04;;;;;;;8.00;1.85;;;;;;;14.74;93.71;93482.34;5032434;28;20057;-56
2022/06/24 02:53:32;;;;;;;7.88;2.10;;;;;;;14.74;93.68;93482.34;5050844;28;20071;-56
2022/06/24 02:56:01;;;;;;;6.78;2.20;;;;;;;14.73;93.68;93481.59;5052405;28;20110;-56
2022/06/24 02:58:28;;;;;;;7.03;2.25;;;;;;;14.72;94.14;93484.78;5045327;28;20401;-56
2022/06/24 03:00:55;;;;;;;6.83;2.03;;;;;;;14.74;94.21;93479.59;5044864;28;20122;-57
2022/06/24 03:03:23;;;;;;;7.43;2.20;;;;;;;14.73;93.84;93478.81;5051686;28;20051;-57
2022/06/24 03:05:50;;;;;;;7.28;1.98;;;;;;;14.66;94.45;93486.59;5052328;28;20524;-54
2022/06/24 03:08:20;;;;;;;6.70;2.08;;;;;;;14.66;94.51;93481.84;5051501;28;20057;-56
2022/06/24 03:10:48;;;;;;;7.18;2.28;;;;;;;14.58;94.80;93480.56;5051974;28;20581;-57
2022/06/24 03:13:15;;;;;;;6.63;2.07;;;;;;;14.57;94.77;93479.06;5051644;28;20359;-57
2022/06/24 03:15:43;;;;;;;5.97;2.10;;;;;;;14.62;94.53;93475.69;5039107;28;20410;-55
2022/06/24 03:18:11;;;;;;;8.55;2.10;;;;;;;14.62;94.16;93474.94;5020328;28;20050;-57
2022/06/24 03:20:38;;;;;;;6.47;2.30;;;;;;;14.58;93.99;93475.06;5031609;28;20110;-54
2022/06/24 03:23:11;;;;;;;6.45;2.20;;;;;;;14.55;94.48;93470.41;5032161;28;20068;-54
2022/06/24 03:25:38;;;;;;;5.23;1.90;;;;;;;14.50;94.62;93474.50;5030818;28;20045;-54
2022/06/24 03:28:05;;;;;;;7.55;2.10;;;;;;;14.54;95.02;93477.16;5030955;28;20376;-57
2022/06/24 03:30:32;;;;;;;5.30;2.00;;;;;;;14.53;94.91;93479.16;5031199;28;20057;-54
2022/06/24 03:33:01;;;;;;;7.47;2.30;;;;;;;14.53;94.66;93470.88;5027781;28;20042;-54
2022/06/24 03:35:28;;;;;;;5.75;2.28;;;;;;;14.59;94.57;93471.09;5023794;28;20046;-54
2022/06/24 03:37:55;;;;;;;6.77;2.03;;;;;;;14.61;94.34;93478.91;5031510;28;20053;-53
2022/06/24 03:40:21;;;;;;;8.18;2.20;;;;;;;14.63;94.49;93479.22;5030063;28;20690;-56
2022/06/24 03:42:48;;;;;;;6.15;2.20;;;;;;;14.64;94.51;93481.53;5031493;28;20049;-57
2022/06/24 03:45:15;;;;;;;6.13;2.13;;;;;;;14.70;94.22;93485.25;5030944;28;20052;-57
2022/06/24 03:47:42;;;;;;;6.22;2.20;;;;;;;14.69;93.90;93491.22;5031585;28;20045;-56
2022/06/24 03:50:08;;;;;;;8.53;3.00;;;;;;;14.62;94.01;93494.25;5017162;28;20041;-54
2022/06/24 03:52:35;;;;;;;6.20;2.22;;;;;;;14.70;93.99;93487.25;5019515;28;20046;-56
2022/06/24 03:55:02;;;;;;;5.78;2.20;;;;;;;14.82;93.52;93482.84;5026371;28;20049;-57
2022/06/24 03:57:30;;;;;;;7.50;2.35;;;;;;;14.86;93.35;93475.97;5037542;28;20045;-57
2022/06/24 03:59:56;;;;;;;9.68;2.35;;;;;;;14.95;93.15;93478.78;5040966;28;20055;-54
2022/06/24 04:02:23;;;;;;;6.20;2.00;;;;;;;14.96;92.87;93477.53;5050642;28;20049;-56
2022/06/24 04:04:50;;;;;;;6.93;2.20;;;;;;;15.02;92.78;93465.91;5050617;28;20057;-56
2022/06/24 04:07:17;;;;;;;5.22;1.90;;;;;;;15.05;92.79;93473.25;5037199;28;20056;-57
2022/06/24 04:09:44;;;;;;;7.00;2.30;;;;;;;14.92;93.45;93473.38;5050832;28;20136;-57
2022/06/24 04:12:11;;;;;;;4.53;2.20;;;;;;;15.04;93.60;93474.50;5050964;28;20055;-56
2022/06/24 04:17:23;;;;;;;5.07;2.40;;;;;;;15.08;92.71;93466.84;5050400;28;20084;-57
2022/06/24 04:19:52;;;;;;;6.15;2.65;;;;;;;14.91;93.41;93466.28;5050764;28;20383;-54
2022/06/24 04:22:20;;;;;;;5.22;2.33;;;;;;;15.03;93.65;93470.97;5048908;28;20095;-54
2022/06/24 04:24:47;;;;;;;6.80;2.40;;;;;;;15.17;93.02;93464.09;5036416;28;20033;-55
2022/06/24 04:27:14;;;;;;;6.57;2.77;;;;;;;15.50;91.66;93464.31;5050449;28;20041;-56
2022/06/24 04:29:41;;;;;;;4.75;2.60;;;;;;;17.09;83.97;93450.59;5028275;28;20924;-58
2022/06/24 04:32:08;;;;;;;6.75;2.50;;;;;;;18.52;77.00;93447.44;5030447;28;20047;-57
2022/06/24 04:34:37;;;;;;;5.50;2.00;;;;;;;19.63;71.38;93446.88;5025684;28;20049;-57
2022/06/24 04:37:06;;;;;;;5.85;2.13;;;;;;;20.24;68.04;93456.50;5029007;28;20061;-58
2022/06/24 04:39:33;;;;;;;6.03;2.20;;;;;;;20.80;66.33;93461.91;5029025;28;20057;-57
2022/06/24 04:42:00;;;;;;;5.80;1.95;;;;;;;20.38;67.12;93466.00;5030199;28;20517;-58
2022/06/24 04:44:27;;;;;;;8.75;2.30;;;;;;;19.50;70.49;93463.16;5029677;28;20524;-57
2022/06/24 04:46:54;;;;;;;4.72;1.92;;;;;;;18.84;72.98;93467.22;5030033;28;20046;-58
2022/06/24 04:49:21;;;;;;;4.65;2.05;;;;;;;17.87;77.25;93461.91;5015417;28;20149;-58
2022/06/24 04:51:48;;;;;;;7.13;2.57;;;;;;;16.90;82.64;93455.47;5021941;28;20045;-58
2022/06/24 04:54:15;;;;;;;5.25;2.40;;;;;;;16.84;83.64;93462.88;5029094;28;20053;-57
2022/06/24 04:56:42;;;;;;;4.97;2.20;;;;;;;16.36;85.63;93460.66;5033867;28;20047;-57
2022/06/24 04:59:09;;;;;;;6.22;2.25;;;;;;;16.25;87.30;93452.06;5035956;28;20409;-57
2022/06/24 05:01:36;;;;;;;6.72;2.50;;;;;;;16.43;86.45;93444.97;5049293;28;20049;-56
2022/06/24 05:04:03;;;;;;;6.37;2.50;;;;;;;16.49;87.29;93443.84;5049936;28;20048;-57
2022/06/24 05:06:30;;;;;;;6.03;2.45;;;;;;;16.50;86.76;93447.38;5040018;28;20044;-56
2022/06/24 05:08:57;;;;;;;7.22;2.78;;;;;;;16.48;87.50;93441.53;5045398;28;20049;-58
2022/06/24 05:11:24;;;;;;;6.07;2.65;;;;;;;16.33;87.22;93450.50;5049263;28;20058;-56
2022/06/24 05:13:51;;;;;;;6.63;2.75;;;;;;;16.73;86.73;93454.25;5049902;28;20079;-57
2022/06/24 05:16:18;;;;;;;7.97;2.90;;;;;;;17.67;83.70;93442.28;5048955;28;20045;-57
2022/06/24 05:19:04;;;;;;;6.43;2.50;;;;;;;19.93;72.18;93449.56;5035800;28;20046;-57
2022/06/24 05:21:31;;;;;;;5.50;2.25;;;;;;;21.47;64.78;93433.75;5048907;28;20047;-58
2022/06/24 05:23:58;;;;;;;5.60;2.05;;;;;;;21.52;64.24;93442.16;5035777;28;20049;-58
2022/06/24 05:26:24;;;;;;;5.90;2.30;;;;;;;22.55;61.16;93438.53;5047751;28;20049;-58
2022/06/24 05:28:51;;;;;;;5.30;2.30;;;;;;;22.33;60.91;93440.03;5048345;28;20079;-57
2022/06/24 05:31:18;;;;;;;6.57;2.10;;;;;;;21.72;62.70;93444.06;5047507;28;20036;-57
2022/06/24 05:33:45;;;;;;;5.65;2.40;;;;;;;22.39;60.75;93436.47;5048865;28;20053;-58
2022/06/24 05:36:12;;;;;;;5.03;2.10;;;;;;;21.29;64.23;93444.03;5048174;28;20052;-59
2022/06/24 05:38:39;;;;;;;5.75;2.20;;;;;;;20.98;66.06;93446.84;5048974;28;20051;-58
2022/06/24 05:41:11;;;;;;;5.90;2.10;;;;;;;22.30;62.25;93440.25;5049382;28;20052;-58
2022/06/24 05:43:38;;;;;;;7.40;2.20;;;;;;;24.06;56.51;93436.13;5038119;28;20050;-58
2022/06/24 05:46:05;;;;;;;4.65;2.03;;;;;;;24.76;53.61;93436.06;5028747;28;20060;-59
2022/06/24 05:48:32;;;;;;;5.15;2.00;;;;;;;25.62;51.20;93430.00;5027757;28;20332;-59
2022/06/24 05:50:59;;;;;;;5.47;2.00;;;;;;;25.44;50.78;93427.91;5029320;28;20051;-59
2022/06/24 05:56:11;;;;;;;5.22;2.22;;;;;;;24.04;55.56;93438.69;5032828;28;20065;-58
2022/06/24 05:58:38;;;;;;;6.18;2.10;;;;;;;23.77;55.08;93424.28;5030810;28;20118;-59
2022/06/24 06:01:11;;;;;;;4.65;2.10;;;;;;;25.13;51.42;93432.72;5032720;28;20393;-58
2022/06/24 06:03:38;;;;;;;6.70;2.03;;;;;;;24.96;52.57;93424.44;5032458;28;20050;-58
2022/06/24 06:06:06;;;;;;;4.33;2.00;;;;;;;26.66;48.42;93415.78;5032097;28;20417;-58
2022/06/24 06:08:37;;;;;;;5.95;2.33;;;;;;;25.80;50.11;93417.31;5032483;28;20436;-58
2022/06/24 06:11:30;;;;;;;8.70;2.35;;;;;;;24.77;53.27;93418.72;5049793;28;20044;-58
2022/06/24 06:13:57;;;;;;;6.07;2.30;;;;;;;22.70;59.01;93413.13;5019798;28;20043;-58
2022/06/24 06:16:24;;;;;;;5.72;2.30;;;;;;;21.48;62.96;93413.72;5005820;28;20413;-57
2022/06/24 06:18:51;;;;;;;5.67;2.37;;;;;;;21.64;62.98;93403.16;5017374;28;20049;-58
2022/06/24 06:21:18;;;;;;;6.22;2.40;;;;;;;24.48;54.79;93414.53;5048957;28;20049;-58
2022/06/24 06:23:46;;;;;;;7.47;2.28;;;;;;;24.24;55.30;93404.69;5037513;28;20080;-58
2022/06/24 06:26:13;;;;;;;5.03;2.20;;;;;;;22.45;60.33;93406.47;5052631;28;20059;-58
2022/06/24 06:28:41;;;;;;;6.18;2.00;;;;;;;24.57;54.21;93405.06;5032165;28;20566;-57
2022/06/24 06:31:09;;;;;;;7.10;2.20;;;;;;;24.95;52.89;93400.47;5026091;28;20080;-58
2022/06/24 06:33:37;;;;;;;7.30;2.30;;;;;;;26.26;49.68;93392.25;5014080;28;20050;-58
2022/06/24 06:36:12;;;;;;;5.72;2.05;;;;;;;25.08;52.56;93394.97;5027305;28;20123;-58
2022/06/24 06:38:39;;;;;;;7.15;2.30;;;;;;;24.68;54.40;93397.31;5032421;28;20063;-57
2022/06/24 06:41:13;;;;;;;8.57;2.30;;;;;;;25.87;50.58;93391.41;5032779;28;20049;-58
2022/06/24 06:43:40;;;;;;;7.40;2.20;;;;;;;24.01;54.69;93390.03;5031858;28;21585;-58
2022/06/24 06:46:11;;;;;;;6.95;2.10;;;;;;;25.49;51.45;93385.72;5032762;28;20049;-58
2022/06/24 06:48:41;;;;;;;7.82;2.58;;;;;;;28.11;44.32;93384.13;5021545;28;20054;-59
2022/06/24 06:51:08;;;;;;;6.72;2.17;;;;;;;27.52;45.30;93378.56;5029537;28;20041;-58
2022/06/24 06:53:35;;;;;;;9.68;2.17;;;;;;;27.40;45.01;93383.63;5032025;28;20053;-58
2022/06/24 06:56:02;;;;;;;9.10;2.33;;;;;;;26.79;46.21;93388.97;5032272;28;20409;-59
2022/06/24 06:58:29;;;;;;;7.30;1.98;;;;;;;27.23;45.80;93376.25;5032041;28;20118;-59
2022/06/24 07:00:56;;;;;;;8.75;2.28;;;;;;;25.71;48.73;93378.31;5031730;28;20045;-59
2022/06/24 07:03:22;;;;;;;15.60;2.20;;;;;;;25.93;48.60;93376.56;5030956;28;20048;-58
2022/06/24 07:05:50;;;;;;;6.72;1.92;;;;;;;27.97;43.51;93380.53;5032074;28;20156;-59
2022/06/24 07:08:17;;;;;;;9.40;1.90;;;;;;;29.50;40.98;93389.19;5031565;28;20094;-58
2022/06/24 07:10:44;;;;;;;5.90;1.90;;;;;;;30.19;38.25;93378.34;5032124;28;20052;-58
2022/06/24 07:13:11;;;;;;;6.93;2.05;;;;;;;30.10;38.17;93373.97;5031919;28;20079;-59
2022/06/24 07:15:38;;;;;;;5.20;1.50;;;;;;;32.82;33.73;93372.19;5010485;28;20058;-60
2022/06/24 07:18:05;;;;;;;6.93;1.85;;;;;;;31.60;34.81;93374.03;5023849;28;20057;-59
2022/06/24 07:20:33;;;;;;;6.20;1.90;;;;;;;29.86;38.20;93377.97;5022089;28;20044;-58
2022/06/24 07:23:00;;;;;;;6.57;1.92;;;;;;;29.74;38.35;93385.25;5035133;28;20160;-58
2022/06/24 07:25:27;;;;;;;6.20;1.80;;;;;;;28.88;39.95;93378.09;5040520;28;20047;-58
2022/06/24 07:27:54;;;;;;;5.45;1.80;;;;;;;29.32;40.41;93383.22;5051890;28;20040;-58
2022/06/24 07:30:21;;;;;;;5.30;1.80;;;;;;;27.96;41.66;93381.88;5050939;28;20090;-59
2022/06/24 07:32:47;;;;;;;5.97;2.00;;;;;;;29.74;39.04;93374.72;5037938;28;20045;-58
2022/06/24 07:35:14;;;;;;;5.03;1.70;;;;;;;29.85;38.35;93363.06;5050785;28;20045;-59
2022/06/24 07:38:01;;;;;;;4.63;1.80;;;;;;;27.77;41.65;93367.84;5051748;28;20045;-60
2022/06/24 07:40:28;;;;;;;6.53;2.00;;;;;;;27.33;43.12;93362.50;5051089;28;20045;-59
2022/06/24 07:42:55;;;;;;;5.15;1.90;;;;;;;26.44;44.85;93368.97;5051468;28;20416;-58
2022/06/24 07:45:21;;;;;;;6.37;1.80;;;;;;;27.89;41.33;93357.91;5050755;28;20051;-58
2022/06/24 07:47:48;;;;;;;5.93;1.83;;;;;;;26.24;45.41;93352.63;5051421;28;20404;-59
2022/06/24 07:50:15;;;;;;;5.07;2.00;;;;;;;28.17;40.90;93353.72;5036779;28;20053;-59
2022/06/24 07:52:42;;;;;;;6.20;2.08;;;;;;;28.32;40.54;93351.09;5051258;28;20045;-59
2022/06/24 07:57:54;;;;;;;5.07;1.90;;;;;;;29.86;37.15;93336.31;5030330;28;20568;-58
2022/06/24 08:00:21;;;;;;;8.15;2.10;;;;;;;30.65;36.09;93319.09;5030602;28;20049;-60
2022/06/24 08:02:48;;;;;;;4.75;1.70;;;;;;;30.49;35.39;93331.72;5031248;28;20053;-59
2022/06/24 08:05:15;;;;;;;6.75;1.67;;;;;;;29.74;36.64;93325.84;5030798;28;20045;-59
2022/06/24 08:07:45;;;;;;;5.93;1.90;;;;;;;29.78;37.25;93323.44;5030784;28;20038;-59
2022/06/24 08:10:12;;;;;;;5.67;1.80;;;;;;;30.96;35.52;93316.34;5031146;28;20056;-59
2022/06/24 08:12:39;;;;;;;4.05;1.70;;;;;;;28.79;37.99;93324.13;5030289;28;20045;-59
2022/06/24 08:15:06;;;;;;;5.72;1.92;;;;;;;26.24;43.47;93332.94;5006730;28;20056;-58
2022/06/24 08:17:33;;;;;;;5.68;2.00;;;;;;;27.93;40.61;93324.50;5021741;28;20045;-58
2022/06/24 08:20:00;;;;;;;5.82;1.88;;;;;;;29.48;37.89;93314.19;5031034;28;20587;-59
2022/06/24 08:22:26;;;;;;;5.07;2.00;;;;;;;30.66;35.50;93312.84;5032022;28;20045;-59
2022/06/24 08:24:53;;;;;;;5.18;1.75;;;;;;;31.48;33.31;93314.09;5036543;28;20048;-59
2022/06/24 08:27:40;;;;;;;5.53;1.77;;;;;;;31.20;33.49;93312.94;5049895;28;20413;-59
2022/06/24 08:30:07;;;;;;;5.78;1.77;;;;;;;28.19;38.53;93303.16;5049245;28;20057;-60
2022/06/24 08:32:34;;;;;;;5.10;1.98;;;;;;;28.27;38.93;93301.97;5037307;28;20045;-59
2022/06/24 08:35:01;;;;;;;6.70;1.90;;;;;;;26.95;41.70;93308.34;5048874;28;20413;-58
2022/06/24 08:37:48;;;;;;;5.15;1.90;;;;;;;25.47;43.90;93309.63;5049235;28;20484;-59
2022/06/24 08:40:16;;;;;;;4.35;1.70;;;;;;;26.30;43.31;93300.63;5049523;28;20041;-58
2022/06/24 08:42:44;;;;;;;4.78;2.08;;;;;;;26.71;42.47;93298.75;5050138;28;20405;-59
2022/06/24 08:45:14;;;;;;;8.02;2.63;;;;;;;26.68;43.92;93299.81;5034635;28;20045;-58
2022/06/24 08:47:41;;;;;;;7.27;2.10;;;;;;;25.95;44.07;93300.88;5004284;28;20262;-58
2022/06/24 08:50:09;;;;;;;5.90;2.22;;;;;;;25.70;45.29;93290.44;5026048;28;20405;-59
2022/06/24 08:52:36;;;;;;;4.10;1.90;;;;;;;25.94;44.99;93291.69;5049019;28;20067;-58
2022/06/24 08:55:04;;;;;;;5.70;2.00;;;;;;;25.47;45.32;93297.59;5049744;28;20049;-59
2022/06/24 08:57:31;;;;;;;5.57;2.00;;;;;;;25.38;45.54;93292.38;5049514;28;20449;-58
2022/06/24 08:59:58;;;;;;;5.27;2.00;;;;;;;24.52;47.92;93295.16;5050096;28;20127;-60
2022/06/24 09:02:25;;;;;;;6.80;2.30;;;;;;;24.53;48.26;93301.56;5049377;28;20040;-58
2022/06/24 09:04:52;;;;;;;5.20;2.10;;;;;;;24.86;47.33;93303.31;5050318;28;20424;-58
2022/06/24 09:07:26;;;;;;;5.40;2.10;;;;;;;24.51;48.07;93299.28;5048193;28;20056;-59
2022/06/24 09:10:01;;;;;;;5.80;2.42;;;;;;;24.93;47.59;93293.53;5049705;28;20084;-58
2022/06/24 09:12:29;;;;;;;5.13;2.20;;;;;;;23.53;50.10;93298.78;5049273;28;20045;-58
2022/06/24 09:15:03;;;;;;;6.38;2.30;;;;;;;24.28;48.74;93292.28;5033786;28;20059;-58
2022/06/24 09:17:31;;;;;;;5.88;2.38;;;;;;;24.11;49.25;93289.59;5032695;28;20041;-59
2022/06/24 09:20:12;;;;;;;4.90;2.10;;;;;;;23.99;50.04;93290.94;5023034;28;20421;-58
2022/06/24 09:23:09;;;;;;;6.32;2.45;;;;;;;24.46;48.20;93280.41;5038676;28;20682;-58
2022/06/24 09:25:50;;;;;;;6.20;2.20;;;;;;;23.40;51.57;93276.16;5044381;28;20051;-58
2022/06/24 09:28:21;;;;;;;6.38;2.20;;;;;;;23.64;50.16;93281.16;5049254;28;20616;-58
2022/06/24 09:30:48;;;;;;;5.60;2.50;;;;;;;24.11;48.62;93278.38;5033228;28;20060;-58
2022/06/24 09:33:17;;;;;;;7.05;2.50;;;;;;;24.38;50.86;93285.06;5033675;28;20051;-58
2022/06/24 09:36:01;;;;;;;6.65;2.55;;;;;;;25.12;49.02;93282.41;5048466;28;20049;-58
2022/06/24 09:38:28;;;;;;;5.50;2.13;;;;;;;26.00;47.01;93278.31;5049080;28;20095;-58
2022/06/24 09:41:06;;;;;;;8.82;2.70;;;;;;;24.74;50.55;93279.44;5046271;28;20044;-58
2022/06/24 09:43:33;;;;;;;5.13;2.67;;;;;;;24.41;52.18;93286.84;5038676;28;20395;-58
2022/06/24 09:46:00;;;;;;;6.82;3.30;;;;;;;23.41;54.73;93295.25;5048755;28;20053;-59
2022/06/24 09:48:29;;;;;;;10.88;3.10;;;;;;;22.02;59.53;93292.81;5029090;28;20118;-58
2022/06/24 09:51:01;;;;;;;6.93;3.40;;;;;;;22.16;59.54;93288.25;5044718;28;20064;-58
2022/06/24 09:53:35;;;;;;;9.13;3.75;;;;;;;22.10;60.74;93293.06;5048677;28;20044;-58
2022/06/24 09:56:04;;;;;;;11.25;4.60;;;;;;;21.89;60.93;93300.91;5049458;28;20045;-62
2022/06/24 09:58:31;;;;;;;7.65;3.92;;;;;;;22.51;59.27;93296.16;5048523;28;20052;-58
2022/06/24 10:00:58;;;;;;;6.93;3.17;;;;;;;22.61;58.58;93293.13;5049693;28;20051;-58
2022/06/24 10:03:26;;;;;;;7.63;3.47;;;;;;;23.09;57.77;93290.00;5048708;28;20059;-58
2022/06/24 10:05:59;;;;;;;5.55;3.20;;;;;;;23.87;55.39;93285.41;5049219;28;20049;-59
2022/06/24 10:08:30;;;;;;;7.53;3.60;;;;;;;24.05;54.98;93283.28;5048724;28;20037;-58
2022/06/24 10:11:17;;;;;;;9.35;3.70;;;;;;;24.60;53.24;93274.97;5048788;28;20041;-58
2022/06/24 10:13:44;;;;;;;7.70;3.72;;;;;;;26.99;47.30;93266.56;5047646;28;20049;-58
2022/06/24 10:16:11;;;;;;;7.97;3.20;;;;;;;27.70;44.78;93271.34;5048919;28;20044;-58
2022/06/24 10:18:48;;;;;;;5.45;2.97;;;;;;;26.78;46.32;93277.66;5037790;28;20053;-58
2022/06/24 10:21:16;;;;;;;7.78;3.30;;;;;;;26.20;48.51;93273.41;5046860;28;20049;-57
2022/06/24 10:23:45;;;;;;;6.72;3.10;;;;;;;26.33;47.05;93275.53;5035308;28;20048;-58
2022/06/24 10:26:13;;;;;;;7.63;3.28;;;;;;;27.10;44.71;93266.34;5048617;28;20049;-59
2022/06/24 10:29:03;;;;;;;5.87;2.87;;;;;;;28.77;41.78;93262.56;5046629;28;20637;-59
2022/06/24 10:31:42;;;;;;;7.80;3.03;;;;;;;26.29;46.34;93270.22;5048445;28;20045;-58
2022/06/24 10:34:09;;;;;;;8.98;3.03;;;;;;;24.57;49.65;93271.19;5039282;28;20098;-58
2022/06/24 10:36:36;;;;;;;5.43;2.47;;;;;;;26.66;46.28;93263.78;5049245;28;20045;-58
2022/06/24 10:39:11;;;;;;;7.57;2.80;;;;;;;27.08;44.55;93264.06;5051098;28;20146;-58
2022/06/24 10:41:41;;;;;;;5.40;2.60;;;;;;;26.43;45.80;93259.78;5052188;28;20045;-58
2022/06/24 10:44:25;;;;;;;5.70;2.67;;;;;;;27.66;43.70;93254.00;5052547;28;20075;-59
2022/06/24 10:47:15;;;;;;;9.32;2.65;;;;;;;27.51;44.19;93253.81;5031772;28;20634;-60
2022/06/24 10:49:54;;;;;;;5.32;2.80;;;;;;;27.13;44.32;93261.69;5031703;28;20046;-59
2022/06/24 10:52:33;;;;;;;8.82;3.00;;;;;;;25.83;47.06;93255.25;5032139;28;20104;-59
2022/06/24 10:55:29;;;;;;;6.50;2.93;;;;;;;25.21;49.79;93245.56;5032211;28;20037;-58
2022/06/24 10:58:04;;;;;;;6.00;2.70;;;;;;;24.67;49.22;93249.91;5022027;28;20058;-59
2022/06/24 11:00:38;;;;;;;5.18;2.70;;;;;;;23.93;51.83;93238.47;5021955;28;20060;-59
2022/06/24 11:03:13;;;;;;;4.60;2.40;;;;;;;24.02;50.08;93239.44;5007266;28;20038;-58
2022/06/24 11:05:47;;;;;;;4.78;2.50;;;;;;;24.71;49.16;93236.38;5038870;28;20496;-58
2022/06/24 11:08:19;;;;;;;4.80;2.70;;;;;;;24.66;50.04;93233.59;5043704;28;20047;-58
2022/06/24 11:10:49;;;;;;;6.10;3.00;;;;;;;24.81;50.21;93236.78;5042509;28;20048;-58
2022/06/24 11:13:17;;;;;;;6.07;2.80;;;;;;;25.58;48.61;93234.91;5051499;28;20049;-58
2022/06/24 11:15:50;;;;;;;6.15;2.80;;;;;;;23.90;51.39;93249.97;5020099;28;20379;-57
2022/06/24 11:18:21;;;;;;;5.72;2.65;;;;;;;23.27;52.77;93259.94;5051691;28;20398;-58
2022/06/24 11:20:52;;;;;;;5.90;2.80;;;;;;;23.81;52.43;93251.03;5050545;28;20059;-58
2022/06/24 11:23:21;;;;;;;6.63;3.08;;;;;;;24.05;52.79;93246.84;5051188;28;20409;-58
2022/06/24 11:25:55;;;;;;;7.35;3.28;;;;;;;24.08;55.88;93251.38;5051597;28;20444;-58
2022/06/24 11:28:45;;;;;;;9.30;3.10;;;;;;;23.95;57.25;93262.44;5021853;28;20505;-58
2022/06/24 11:31:18;;;;;;;5.70;3.13;;;;;;;24.01;62.64;93260.38;5036504;28;20045;-57
2022/06/24 11:33:48;;;;;;;7.33;2.80;;;;;;;22.78;66.88;93279.09;5023441;28;20679;-57
2022/06/24 11:36:15;;;;;;;11.88;3.33;;;;;;;22.03;70.73;93280.34;5022597;28;20048;-57
2022/06/24 11:38:56;;;;;;;7.65;2.40;;;;;;;21.98;67.15;93272.72;5021710;28;20053;-57
2022/06/24 11:41:25;;;;;;;7.95;2.30;;;;;;;21.19;68.00;93278.06;5030979;28;20067;-56
2022/06/24 11:44:11;;;;;;;5.80;2.30;;;;;;;21.40;65.85;93281.44;5031568;28;20053;-56
2022/06/24 11:46:38;;;;;;;6.30;2.20;;;;;;;20.78;66.49;93269.22;5030911;28;20049;-57
2022/06/24 11:49:06;;;;;;;5.32;2.33;;;;;;;19.95;69.15;93280.72;5030670;28;20494;-57
2022/06/24 11:51:34;;;;;;;7.78;3.00;;;;;;;19.63;72.24;93288.22;5030875;28;20044;-57
2022/06/24 11:54:03;;;;;;;5.55;2.90;;;;;;;19.56;73.79;93292.19;5029846;28;20405;-57
2022/06/24 11:56:32;;;;;;;8.30;3.20;;;;;;;19.24;75.15;93302.44;5030667;28;20045;-58